createdAt,value
2022-09-24T00:00:54.566Z,11.85
2022-09-24T00:02:00.298Z,11.90
2022-09-24T00:03:05.869Z,11.89
2022-09-24T00:04:13.487Z,11.94
2022-09-24T00:05:18.514Z,11.99
2022-09-24T00:06:21.175Z,11.98
2022-09-24T00:07:24.567Z,12.04
2022-09-24T00:08:26.936Z,12.04
2022-09-24T00:09:30.440Z,12.01
2022-09-24T00:10:38.736Z,12.01
2022-09-24T00:11:47.895Z,12.04
2022-09-24T00:12:52.972Z,12.11
2022-09-24T00:13:57.403Z,12.20
2022-09-24T00:14:59.763Z,12.12
2022-09-24T00:16:08.500Z,12.13
2022-09-24T00:17:12.264Z,12.10
2022-09-24T00:18:16.447Z,12.07
2022-09-24T00:19:20.156Z,12.17
2022-09-24T00:20:23.037Z,12.09
2022-09-24T00:21:27.263Z,12.07
2022-09-24T00:22:32.554Z,12.15
2022-09-24T00:23:36.165Z,12.17
2022-09-24T00:24:56.796Z,12.21
2022-09-24T00:26:18.680Z,12.16
2022-09-24T00:27:22.399Z,12.10
2022-09-24T00:28:26.629Z,12.06
2022-09-24T00:29:30.035Z,12.06
2022-09-24T00:30:33.192Z,12.15
2022-09-24T00:31:36.585Z,12.03
2022-09-24T00:32:40.341Z,12.11
2022-09-24T00:33:44.047Z,12.18
2022-09-24T00:34:48.499Z,12.20
2022-09-24T00:35:53.049Z,12.14
2022-09-24T00:36:55.824Z,11.99
2022-09-24T00:37:59.746Z,12.02
2022-09-24T00:39:03.063Z,12.05
2022-09-24T00:40:09.257Z,12.03
2022-09-24T00:41:11.829Z,11.90
2022-09-24T00:42:19.301Z,11.89
2022-09-24T00:43:23.830Z,11.92
2022-09-24T00:44:47.620Z,11.85
2022-09-24T00:45:52.477Z,11.88
2022-09-24T00:46:55.778Z,11.95
2022-09-24T00:47:58.344Z,11.99
2022-09-24T00:49:06.595Z,12.00
2022-09-24T00:50:20.508Z,11.96
2022-09-24T00:51:25.797Z,11.97
2022-09-24T00:52:29.491Z,12.06
2022-09-24T00:53:32.998Z,12.12
2022-09-24T00:54:36.920Z,12.05
2022-09-24T00:55:41.471Z,12.03
2022-09-24T00:56:45.698Z,11.97
2022-09-24T00:57:49.732Z,12.01
2022-09-24T00:58:55.135Z,11.92
2022-09-24T00:59:58.724Z,11.90
2022-09-24T01:01:05.200Z,11.96
2022-09-24T01:02:09.656Z,12.03
2022-09-24T01:03:16.038Z,11.99
2022-09-24T01:04:20.997Z,12.04
2022-09-24T01:05:24.396Z,12.05
2022-09-24T01:06:27.907Z,11.94
2022-09-24T01:07:30.677Z,11.85
2022-09-24T01:08:34.497Z,11.98
2022-09-24T01:09:38.210Z,11.99
2022-09-24T01:10:49.347Z,11.96
2022-09-24T01:12:10.207Z,12.00
2022-09-24T01:13:16.597Z,11.92
2022-09-24T01:14:39.958Z,11.94
2022-09-24T01:15:46.574Z,12.01
2022-09-24T01:17:00.552Z,12.05
2022-09-24T01:18:14.970Z,12.09
2022-09-24T01:19:31.269Z,12.01
2022-09-24T01:20:55.231Z,12.01
2022-09-24T01:22:00.945Z,12.15
2022-09-24T01:23:05.592Z,12.13
2022-09-24T01:24:10.943Z,12.13
2022-09-24T01:25:23.576Z,12.20
2022-09-24T01:26:44.316Z,12.22
2022-09-24T01:27:53.881Z,12.20
2022-09-24T01:29:05.550Z,12.19
2022-09-24T01:30:14.967Z,12.07
2022-09-24T01:31:21.353Z,11.97
2022-09-24T01:32:30.212Z,12.01
2022-09-24T01:33:31.562Z,12.04
2022-09-24T01:34:40.349Z,12.02
2022-09-24T01:35:45.149Z,12.06
2022-09-24T01:36:49.646Z,11.95
2022-09-24T01:37:57.489Z,11.92
2022-09-24T01:39:02.035Z,11.91
2022-09-24T01:40:08.581Z,11.88
2022-09-24T01:41:12.702Z,11.86
2022-09-24T01:42:19.232Z,11.79
2022-09-24T01:43:23.162Z,11.77
2022-09-24T01:44:27.398Z,11.81
2022-09-24T01:45:31.985Z,11.83
2022-09-24T01:46:37.844Z,11.82
2022-09-24T01:47:42.975Z,11.94
2022-09-24T01:48:45.811Z,11.93
2022-09-24T01:49:49.308Z,11.82
2022-09-24T01:50:54.904Z,11.72
2022-09-24T01:52:02.167Z,11.74
2022-09-24T01:53:13.333Z,11.87
2022-09-24T01:54:22.549Z,11.92
2022-09-24T01:55:30.374Z,11.99
2022-09-24T01:56:35.746Z,12.03
2022-09-24T01:57:42.381Z,12.04
2022-09-24T01:58:48.906Z,11.98
2022-09-24T02:00:00.856Z,12.06
2022-09-24T02:01:08.719Z,12.05
2022-09-24T02:02:16.919Z,11.98
2022-09-24T02:03:23.384Z,12.03
2022-09-24T02:04:29.077Z,11.94
2022-09-24T02:05:40.063Z,11.91
2022-09-24T02:06:46.322Z,11.94
2022-09-24T02:07:51.191Z,11.95
2022-09-24T02:08:57.512Z,11.94
2022-09-24T02:10:02.059Z,11.97
2022-09-24T02:11:16.863Z,12.10
2022-09-24T02:12:26.839Z,12.08
2022-09-24T02:13:36.184Z,12.00
2022-09-24T02:14:45.430Z,12.02
2022-09-24T02:15:50.705Z,12.11
2022-09-24T02:16:55.826Z,12.11
2022-09-24T02:18:00.270Z,12.17
2022-09-24T02:19:05.508Z,12.12
2022-09-24T02:20:10.823Z,11.96
2022-09-24T02:21:17.184Z,11.97
2022-09-24T02:22:20.830Z,11.98
2022-09-24T02:23:26.530Z,12.04
2022-09-24T02:24:34.943Z,11.95
2022-09-24T02:25:40.330Z,11.97
2022-09-24T02:26:44.147Z,11.94
2022-09-24T02:27:47.862Z,12.07
2022-09-24T02:28:50.734Z,12.12
2022-09-24T02:29:54.350Z,12.07
2022-09-24T02:31:02.706Z,12.14
2022-09-24T02:32:08.516Z,12.11
2022-09-24T02:33:18.798Z,12.08
2022-09-24T02:34:25.443Z,12.11
2022-09-24T02:35:29.316Z,12.12
2022-09-24T02:36:32.607Z,12.12
2022-09-24T02:37:39.667Z,12.15
2022-09-24T02:38:42.753Z,12.20
2022-09-24T02:39:48.314Z,12.23
2022-09-24T02:40:52.689Z,12.14
2022-09-24T02:41:56.299Z,12.02
2022-09-24T02:43:00.873Z,12.13
2022-09-24T02:44:04.498Z,12.01
2022-09-24T02:45:08.356Z,12.05
2022-09-24T02:46:12.356Z,11.93
2022-09-24T02:47:16.014Z,11.90
2022-09-24T02:48:19.312Z,12.01
2022-09-24T02:49:22.604Z,11.85
2022-09-24T02:50:26.115Z,11.82
2022-09-24T02:51:28.470Z,11.77
2022-09-24T02:52:32.340Z,11.59
2022-09-24T02:53:35.899Z,11.69
2022-09-24T02:54:39.508Z,11.71
2022-09-24T02:55:43.225Z,11.83
2022-09-24T02:56:46.204Z,11.70
2022-09-24T02:57:50.863Z,11.54
2022-09-24T02:58:54.476Z,11.66
2022-09-24T02:59:56.835Z,11.77
2022-09-24T03:01:01.477Z,11.81
2022-09-24T03:02:08.972Z,11.79
2022-09-24T03:03:12.728Z,11.85
2022-09-24T03:04:15.834Z,11.89
2022-09-24T03:05:20.920Z,11.90
2022-09-24T03:06:25.793Z,11.88
2022-09-24T03:07:29.194Z,11.81
2022-09-24T03:08:32.905Z,11.85
2022-09-24T03:09:40.026Z,11.83
2022-09-24T03:10:45.662Z,11.83
2022-09-24T03:11:50.213Z,11.84
2022-09-24T03:12:52.561Z,11.87
2022-09-24T03:13:56.697Z,11.92
2022-09-24T03:15:02.604Z,11.92
2022-09-24T03:16:07.850Z,11.77
2022-09-24T03:17:13.375Z,11.70
2022-09-24T03:18:16.044Z,11.72
2022-09-24T03:19:25.266Z,11.73
2022-09-24T03:20:28.795Z,11.69
2022-09-24T03:21:34.184Z,11.72
2022-09-24T03:22:37.688Z,11.74
2022-09-24T03:23:43.123Z,11.76
2022-09-24T03:24:46.870Z,11.63
2022-09-24T03:25:49.248Z,11.59
2022-09-24T03:26:53.077Z,11.63
2022-09-24T03:27:58.583Z,11.56
2022-09-24T03:29:02.063Z,11.52
2022-09-24T03:30:23.636Z,11.63
2022-09-24T03:31:27.287Z,11.64
2022-09-24T03:32:33.524Z,11.70
2022-09-24T03:33:53.261Z,11.62
2022-09-24T03:34:58.650Z,11.51
2022-09-24T03:36:11.193Z,11.50
2022-09-24T03:37:14.641Z,11.62
2022-09-24T03:38:18.460Z,11.67
2022-09-24T03:39:23.113Z,11.74
2022-09-24T03:40:27.719Z,11.72
2022-09-24T03:41:31.479Z,11.77
2022-09-24T03:42:36.234Z,11.73
2022-09-24T03:43:39.330Z,11.68
2022-09-24T03:44:42.937Z,11.65
2022-09-24T03:45:45.912Z,11.75
2022-09-24T03:46:51.954Z,11.80
2022-09-24T03:47:56.375Z,11.84
2022-09-24T03:49:00.918Z,11.88
2022-09-24T03:50:04.638Z,11.92
2022-09-24T03:51:09.603Z,11.70
2022-09-24T03:52:13.841Z,11.75
2022-09-24T03:53:20.377Z,11.66
2022-09-24T03:54:22.732Z,11.73
2022-09-24T03:55:26.132Z,11.77
2022-09-24T03:56:33.171Z,11.89
2022-09-24T03:57:37.845Z,11.83
2022-09-24T03:58:41.347Z,11.87
2022-09-24T03:59:45.166Z,11.93
2022-09-24T04:00:48.772Z,11.85
2022-09-24T04:01:52.126Z,11.84
2022-09-24T04:02:55.047Z,11.72
2022-09-24T04:04:01.995Z,11.60
2022-09-24T04:05:05.816Z,11.54
2022-09-24T04:06:08.183Z,11.60
2022-09-24T04:07:12.820Z,11.70
2022-09-24T04:08:16.338Z,11.73
2022-09-24T04:09:27.151Z,11.78
2022-09-24T04:10:32.721Z,11.69
2022-09-24T04:11:36.148Z,11.65
2022-09-24T04:12:39.438Z,11.75
2022-09-24T04:13:54.579Z,11.72
2022-09-24T04:14:57.841Z,11.58
2022-09-24T04:16:06.799Z,11.62
2022-09-24T04:17:10.279Z,11.66
2022-09-24T04:18:14.571Z,11.59
2022-09-24T04:19:18.337Z,11.60
2022-09-24T04:20:23.721Z,11.67
2022-09-24T04:21:27.071Z,11.52
2022-09-24T04:22:30.301Z,11.46
2022-09-24T04:23:33.923Z,11.53
2022-09-24T04:24:36.795Z,11.65
2022-09-24T04:25:42.086Z,11.71
2022-09-24T04:26:47.327Z,11.63
2022-09-24T04:27:56.189Z,11.58
2022-09-24T04:29:00.960Z,11.66
2022-09-24T04:30:06.341Z,11.45
2022-09-24T04:31:13.840Z,11.34
2022-09-24T04:32:17.421Z,11.32
2022-09-24T04:33:21.605Z,11.36
2022-09-24T04:34:26.833Z,11.44
2022-09-24T04:35:32.548Z,11.52
2022-09-24T04:36:35.932Z,11.60
2022-09-24T04:37:38.715Z,11.70
2022-09-24T04:38:42.205Z,11.57
2022-09-24T04:39:47.483Z,11.60
2022-09-24T04:40:51.166Z,11.60
2022-09-24T04:41:53.977Z,11.61
2022-09-24T04:42:57.483Z,11.60
2022-09-24T04:44:01.262Z,11.50
2022-09-24T04:45:05.539Z,11.23
2022-09-24T04:46:10.966Z,11.33
2022-09-24T04:47:16.203Z,11.43
2022-09-24T04:48:20.518Z,11.64
2022-09-24T04:49:25.086Z,11.66
2022-09-24T04:50:31.315Z,11.69
2022-09-24T04:51:36.595Z,11.67
2022-09-24T04:52:41.033Z,11.72
2022-09-24T04:53:46.108Z,11.74
2022-09-24T04:54:50.657Z,11.74
2022-09-24T04:55:54.477Z,11.77
2022-09-24T04:56:57.980Z,11.81
2022-09-24T04:58:01.586Z,11.65
2022-09-24T04:59:04.362Z,11.75
2022-09-24T05:00:09.682Z,11.71
2022-09-24T05:01:15.151Z,11.59
2022-09-24T05:02:19.787Z,11.64
2022-09-24T05:03:25.181Z,11.68
2022-09-24T05:04:28.574Z,11.66
2022-09-24T05:05:35.528Z,11.74
2022-09-24T05:06:39.244Z,11.77
2022-09-24T05:07:44.609Z,11.78
2022-09-24T05:08:52.952Z,11.77
2022-09-24T05:09:56.545Z,11.87
2022-09-24T05:11:00.779Z,11.88
2022-09-24T05:12:04.182Z,11.90
2022-09-24T05:13:07.690Z,11.93
2022-09-24T05:14:12.335Z,11.91
2022-09-24T05:15:15.326Z,11.97
2022-09-24T05:16:19.821Z,11.87
2022-09-24T05:17:22.334Z,11.92
2022-09-24T05:18:25.940Z,11.92
2022-09-24T05:19:28.403Z,11.91
2022-09-24T05:20:32.744Z,11.86
2022-09-24T05:21:36.250Z,11.94
2022-09-24T05:22:43.201Z,11.98
2022-09-24T05:23:46.598Z,11.89
2022-09-24T05:24:51.880Z,11.92
2022-09-24T05:26:14.969Z,11.97
2022-09-24T05:27:22.615Z,12.13
2022-09-24T05:28:27.044Z,12.01
2022-09-24T05:29:30.551Z,12.08
2022-09-24T05:30:32.905Z,12.13
2022-09-24T05:31:38.432Z,12.16
2022-09-24T05:32:42.316Z,12.00
2022-09-24T05:33:46.764Z,12.08
2022-09-24T05:34:52.620Z,12.00
2022-09-24T05:35:55.758Z,12.09
2022-09-24T05:36:58.534Z,12.11
2022-09-24T05:38:01.932Z,12.22
2022-09-24T05:39:06.951Z,12.11
2022-09-24T05:40:29.561Z,12.22
2022-09-24T05:41:32.078Z,12.33
2022-09-24T05:42:36.109Z,12.34
2022-09-24T05:43:38.884Z,12.29
2022-09-24T05:44:51.308Z,12.23
2022-09-24T05:45:51.327Z,12.25
2022-09-24T05:46:54.979Z,12.31
2022-09-24T05:48:00.883Z,12.39
2022-09-24T05:49:04.289Z,12.52
2022-09-24T05:50:10.044Z,12.34
2022-09-24T05:51:13.655Z,12.32
2022-09-24T05:52:17.052Z,12.37
2022-09-24T05:53:21.085Z,12.38
2022-09-24T05:54:24.798Z,12.41
2022-09-24T05:55:31.994Z,12.16
2022-09-24T05:56:32.749Z,12.26
2022-09-24T05:57:37.969Z,12.09
2022-09-24T05:58:41.848Z,12.19
2022-09-24T05:59:46.391Z,12.20
2022-09-24T06:00:54.915Z,12.39
2022-09-24T06:01:58.580Z,12.36
2022-09-24T06:03:03.636Z,12.34
2022-09-24T06:04:08.784Z,12.58
2022-09-24T06:05:13.459Z,12.67
2022-09-24T06:06:17.971Z,12.67
2022-09-24T06:07:22.212Z,12.77
2022-09-24T06:08:25.924Z,12.95
2022-09-24T06:09:30.365Z,13.04
2022-09-24T06:10:33.770Z,13.04
2022-09-24T06:11:40.398Z,12.97
2022-09-24T06:12:43.497Z,13.01
2022-09-24T06:13:48.358Z,12.88
2022-09-24T06:14:51.140Z,12.92
2022-09-24T06:16:02.468Z,13.05
2022-09-24T06:17:05.455Z,12.98
2022-09-24T06:18:09.716Z,13.00
2022-09-24T06:19:13.192Z,13.12
2022-09-24T06:20:18.165Z,13.13
2022-09-24T06:21:23.651Z,12.84
2022-09-24T06:22:28.848Z,12.81
2022-09-24T06:23:32.796Z,12.57
2022-09-24T06:24:36.363Z,12.65
2022-09-24T06:25:40.181Z,12.83
2022-09-24T06:26:43.685Z,12.61
2022-09-24T06:27:47.921Z,12.55
2022-09-24T06:28:51.454Z,12.68
2022-09-24T06:29:54.818Z,12.70
2022-09-24T06:30:58.986Z,12.80
2022-09-24T06:32:02.872Z,12.89
2022-09-24T06:33:07.739Z,12.89
2022-09-24T06:34:13.922Z,12.87
2022-09-24T06:35:17.582Z,12.66
2022-09-24T06:36:20.868Z,12.69
2022-09-24T06:37:24.688Z,12.85
2022-09-24T06:38:28.293Z,12.98
2022-09-24T06:39:31.796Z,13.00
2022-09-24T06:40:37.300Z,12.99
2022-09-24T06:41:40.795Z,13.01
2022-09-24T06:42:48.924Z,13.18
2022-09-24T06:43:55.326Z,13.13
2022-09-24T06:44:58.646Z,13.22
2022-09-24T06:46:01.707Z,12.96
2022-09-24T06:47:05.808Z,13.13
2022-09-24T06:48:10.728Z,13.21
2022-09-24T06:49:13.678Z,13.43
2022-09-24T06:50:18.699Z,13.36
2022-09-24T06:51:22.470Z,12.79
2022-09-24T06:52:26.705Z,12.96
2022-09-24T06:53:31.252Z,13.20
2022-09-24T06:54:34.679Z,13.16
2022-09-24T06:55:38.995Z,13.24
2022-09-24T06:56:43.124Z,13.03
2022-09-24T06:57:53.647Z,12.97
2022-09-24T06:59:00.373Z,13.14
2022-09-24T07:00:04.921Z,13.27
2022-09-24T07:01:09.023Z,13.44
2022-09-24T07:02:12.576Z,13.54
2022-09-24T07:03:17.109Z,13.48
2022-09-24T07:04:20.820Z,13.07
2022-09-24T07:05:24.642Z,13.18
2022-09-24T07:06:30.132Z,13.51
2022-09-24T07:07:34.389Z,13.51
2022-09-24T07:08:38.084Z,13.53
2022-09-24T07:09:43.917Z,13.57
2022-09-24T07:10:49.603Z,13.45
2022-09-24T07:11:53.712Z,13.63
2022-09-24T07:12:57.194Z,13.79
2022-09-24T07:14:04.588Z,13.91
2022-09-24T07:15:09.663Z,14.05
2022-09-24T07:16:15.056Z,14.15
2022-09-24T07:17:18.651Z,14.01
2022-09-24T07:18:22.445Z,13.94
2022-09-24T07:19:25.769Z,13.79
2022-09-24T07:20:28.956Z,14.01
2022-09-24T07:21:32.446Z,14.27
2022-09-24T07:22:40.990Z,14.54
2022-09-24T07:23:43.966Z,14.56
2022-09-24T07:24:46.323Z,14.72
2022-09-24T07:25:50.554Z,14.60
2022-09-24T07:26:54.065Z,14.43
2022-09-24T07:27:58.509Z,13.89
2022-09-24T07:29:02.599Z,14.30
2022-09-24T07:30:08.734Z,14.46
2022-09-24T07:31:11.257Z,14.83
2022-09-24T07:32:16.087Z,15.36
2022-09-24T07:33:19.582Z,15.33
2022-09-24T07:34:23.302Z,15.64
2022-09-24T07:35:27.950Z,15.54
2022-09-24T07:36:32.188Z,15.90
2022-09-24T07:37:37.442Z,16.17
2022-09-24T07:38:40.870Z,15.83
2022-09-24T07:39:45.728Z,15.79
2022-09-24T07:40:50.680Z,15.47
2022-09-24T07:41:55.857Z,16.84
2022-09-24T07:42:59.695Z,16.65
2022-09-24T07:44:03.720Z,16.62
2022-09-24T07:46:17.277Z,16.62
2022-09-24T07:47:20.822Z,20.17
2022-09-24T07:48:23.903Z,19.86
2022-09-24T07:49:32.154Z,18.79
2022-09-24T07:50:37.312Z,19.13
2022-09-24T07:51:39.693Z,18.36
2022-09-24T07:52:42.933Z,17.70
2022-09-24T07:53:49.159Z,17.29
2022-09-24T07:54:52.971Z,16.43
2022-09-24T07:55:57.835Z,17.64
2022-09-24T07:57:01.137Z,17.35
2022-09-24T07:58:04.537Z,17.06
2022-09-24T07:59:09.239Z,18.90
2022-09-24T08:00:15.996Z,18.18
2022-09-24T08:01:20.505Z,19.94
2022-09-24T08:02:27.098Z,23.23
2022-09-24T08:03:32.852Z,25.48
2022-09-24T08:04:35.898Z,25.45
2022-09-24T08:05:48.681Z,25.17
2022-09-24T08:06:55.102Z,24.21
2022-09-24T08:08:01.773Z,22.48
2022-09-24T08:09:05.073Z,20.59
2022-09-24T08:10:08.158Z,19.75
2022-09-24T08:11:13.847Z,18.72
2022-09-24T08:12:16.316Z,18.38
2022-09-24T08:13:22.769Z,17.10
2022-09-24T08:14:25.829Z,16.65
2022-09-24T08:15:30.791Z,16.13
2022-09-24T08:16:35.270Z,16.08
2022-09-24T08:17:38.642Z,16.28
2022-09-24T08:18:44.131Z,16.36
2022-09-24T08:19:48.525Z,16.37
2022-09-24T08:20:53.149Z,16.25
2022-09-24T08:21:56.842Z,15.99
2022-09-24T08:23:04.214Z,15.89
2022-09-24T08:24:07.779Z,16.07
2022-09-24T08:25:11.621Z,16.18
2022-09-24T08:26:15.564Z,15.63
2022-09-24T08:27:21.883Z,15.59
2022-09-24T08:28:26.525Z,16.38
2022-09-24T08:29:30.152Z,16.82
2022-09-24T08:30:35.400Z,17.40
2022-09-24T08:31:43.821Z,17.19
2022-09-24T08:32:48.185Z,16.93
2022-09-24T08:33:52.108Z,16.95
2022-09-24T08:34:55.712Z,17.97
2022-09-24T08:36:03.819Z,18.02
2022-09-24T08:37:07.953Z,19.14
2022-09-24T08:38:10.933Z,18.94
2022-09-24T08:39:16.005Z,18.53
2022-09-24T08:40:23.328Z,18.16
2022-09-24T08:41:34.712Z,19.28
2022-09-24T08:42:39.368Z,18.60
2022-09-24T08:43:52.900Z,18.32
2022-09-24T08:45:15.937Z,17.63
2022-09-24T08:46:42.774Z,17.32
2022-09-24T08:47:56.265Z,16.99
2022-09-24T08:49:00.618Z,17.14
2022-09-24T08:50:06.098Z,18.28
2022-09-24T08:51:14.615Z,19.16
2022-09-24T08:52:32.217Z,18.84
2022-09-24T08:53:40.320Z,18.44
2022-09-24T08:54:45.601Z,18.25
2022-09-24T08:55:56.450Z,17.82
2022-09-24T08:57:04.508Z,17.94
2022-09-24T08:58:27.836Z,17.87
2022-09-24T08:59:33.255Z,17.96
2022-09-24T09:00:39.466Z,18.14
2022-09-24T09:01:59.758Z,17.54
2022-09-24T09:03:04.081Z,17.30
2022-09-24T09:04:13.332Z,17.40
2022-09-24T09:05:19.920Z,16.93
2022-09-24T09:06:40.787Z,16.60
2022-09-24T09:08:02.438Z,16.42
2022-09-24T09:09:13.822Z,16.05
2022-09-24T09:10:19.324Z,15.75
2022-09-24T09:11:24.864Z,15.32
2022-09-24T09:12:31.167Z,14.99
2022-09-24T09:13:37.827Z,14.88
2022-09-24T09:14:52.301Z,14.63
2022-09-24T09:16:05.261Z,14.88
2022-09-24T09:17:14.969Z,14.96
2022-09-24T09:18:23.355Z,14.92
2022-09-24T09:19:31.920Z,14.94
2022-09-24T09:20:42.829Z,15.33
2022-09-24T09:21:53.263Z,15.46
2022-09-24T09:22:57.457Z,15.71
2022-09-24T09:24:02.893Z,15.99
2022-09-24T09:25:14.709Z,16.17
2022-09-24T09:26:21.034Z,16.43
2022-09-24T09:27:27.921Z,16.24
2022-09-24T09:28:33.162Z,16.19
2022-09-24T09:29:38.354Z,16.51
2022-09-24T09:30:58.594Z,16.41
2022-09-24T09:32:19.405Z,16.01
2022-09-24T09:33:25.704Z,15.81
2022-09-24T09:34:40.508Z,15.81
2022-09-24T09:35:48.715Z,15.64
2022-09-24T09:36:56.816Z,15.26
2022-09-24T09:39:33.694Z,15.01
2022-09-24T09:40:39.162Z,14.88
2022-09-24T09:41:43.451Z,15.42
2022-09-24T09:42:48.288Z,15.85
2022-09-24T09:43:54.756Z,16.01
2022-09-24T09:45:03.176Z,16.07
2022-09-24T09:46:19.100Z,16.43
2022-09-24T09:47:42.518Z,16.48
2022-09-24T09:48:47.590Z,16.66
2022-09-24T09:49:52.138Z,17.02
2022-09-24T09:50:59.809Z,16.56
2022-09-24T09:52:05.937Z,16.18
2022-09-24T09:53:24.007Z,16.03
2022-09-24T09:54:38.530Z,16.23
2022-09-24T09:55:40.999Z,15.97
2022-09-24T09:56:47.925Z,15.89
2022-09-24T09:57:52.829Z,15.81
2022-09-24T09:59:07.699Z,15.78
2022-09-24T10:00:13.240Z,15.79
2022-09-24T10:01:18.159Z,15.41
2022-09-24T10:02:33.469Z,15.11
2022-09-24T10:03:47.626Z,14.94
2022-09-24T10:04:54.164Z,14.98
2022-09-24T10:05:59.231Z,15.12
2022-09-24T10:07:11.836Z,15.17
2022-09-24T10:08:36.002Z,15.11
2022-09-24T10:09:40.663Z,15.31
2022-09-24T10:10:45.116Z,15.14
2022-09-24T10:11:48.298Z,15.11
2022-09-24T10:12:55.461Z,15.39
2022-09-24T10:14:03.373Z,15.47
2022-09-24T10:15:18.065Z,15.53
2022-09-24T10:16:23.560Z,15.47
2022-09-24T10:17:29.009Z,15.65
2022-09-24T10:18:34.079Z,15.97
2022-09-24T10:19:40.617Z,16.19
2022-09-24T10:20:45.168Z,16.74
2022-09-24T10:21:49.194Z,17.26
2022-09-24T10:22:56.245Z,16.87
2022-09-24T10:24:02.729Z,16.89
2022-09-24T10:25:07.020Z,16.98
2022-09-24T10:26:10.734Z,16.86
2022-09-24T10:27:15.381Z,16.96
2022-09-24T10:28:38.109Z,16.77
2022-09-24T10:30:00.113Z,16.26
2022-09-24T10:31:08.537Z,16.07
2022-09-24T10:32:19.023Z,15.90
2022-09-24T10:33:25.032Z,15.61
2022-09-24T10:34:29.582Z,15.13
2022-09-24T10:35:39.247Z,14.82
2022-09-24T10:36:45.576Z,14.87
2022-09-24T10:37:53.151Z,14.52
2022-09-24T10:39:17.862Z,14.35
2022-09-24T10:40:24.815Z,14.25
2022-09-24T10:41:31.351Z,14.38
2022-09-24T10:42:34.851Z,14.36
2022-09-24T10:43:39.008Z,14.51
2022-09-24T10:44:42.385Z,14.70
2022-09-24T10:45:55.708Z,14.61
2022-09-24T10:47:01.227Z,14.81
2022-09-24T10:48:10.760Z,15.25
2022-09-24T10:49:21.889Z,15.63
2022-09-24T10:50:29.992Z,15.74
2022-09-24T10:51:46.342Z,15.71
2022-09-24T10:52:54.423Z,15.83
2022-09-24T10:54:00.858Z,16.15
2022-09-24T10:55:13.182Z,15.90
2022-09-24T10:56:24.270Z,15.82
2022-09-24T10:57:45.448Z,15.76
2022-09-24T10:58:54.168Z,15.46
2022-09-24T11:00:03.603Z,15.53
2022-09-24T11:01:20.877Z,15.42
2022-09-24T11:02:43.832Z,15.34
2022-09-24T11:03:59.782Z,15.14
2022-09-24T11:05:05.166Z,15.13
2022-09-24T11:06:29.145Z,15.25
2022-09-24T11:07:55.978Z,15.42
2022-09-24T11:09:04.357Z,15.53
2022-09-24T11:10:10.274Z,15.62
2022-09-24T11:11:21.496Z,15.72
2022-09-24T11:12:44.751Z,15.82
2022-09-24T11:13:56.395Z,15.83
2022-09-24T11:15:17.657Z,15.96
2022-09-24T11:16:28.525Z,15.73
2022-09-24T11:17:36.987Z,15.96
2022-09-24T11:18:54.385Z,16.08
2022-09-24T11:20:13.201Z,16.36
2022-09-24T11:21:19.748Z,16.26
2022-09-24T11:22:25.578Z,16.18
2022-09-24T11:23:33.683Z,15.90
2022-09-24T11:24:39.069Z,15.96
2022-09-24T11:25:44.350Z,15.96
2022-09-24T11:27:05.820Z,15.78
2022-09-24T11:28:26.454Z,15.49
2022-09-24T11:29:42.389Z,15.27
2022-09-24T11:30:53.245Z,15.36
2022-09-24T11:32:16.444Z,15.13
2022-09-24T11:33:25.384Z,14.93
2022-09-24T11:34:37.350Z,14.90
2022-09-24T11:35:59.553Z,15.30
2022-09-24T11:37:10.600Z,15.50
2022-09-24T11:39:37.640Z,15.34
2022-09-24T11:41:01.401Z,15.22
2022-09-24T11:42:06.778Z,15.36
2022-09-24T11:43:22.313Z,15.39
2022-09-24T11:44:27.801Z,15.00
2022-09-24T11:45:45.973Z,15.14
2022-09-24T11:46:58.839Z,15.39
2022-09-24T11:48:05.791Z,15.67
2022-09-24T11:49:27.675Z,15.80
2022-09-24T11:50:48.829Z,15.80
2022-09-24T11:52:00.897Z,15.99
2022-09-24T11:53:06.090Z,16.03
2022-09-24T11:54:11.170Z,16.17
2022-09-24T11:55:26.554Z,16.09
2022-09-24T11:56:34.561Z,16.34
2022-09-24T11:57:39.942Z,15.94
2022-09-24T11:58:51.284Z,16.23
2022-09-24T11:59:59.610Z,16.25
2022-09-24T12:01:05.081Z,15.87
2022-09-24T12:02:27.997Z,15.69
2022-09-24T12:04:50.374Z,16.33
2022-09-24T12:06:01.092Z,16.45
2022-09-24T12:07:10.434Z,16.31
2022-09-24T12:08:15.595Z,16.48
2022-09-24T12:09:20.145Z,16.34
2022-09-24T12:10:32.547Z,16.24
2022-09-24T12:11:37.836Z,16.23
2022-09-24T12:12:42.068Z,16.20
2022-09-24T12:13:59.215Z,16.09
2022-09-24T12:15:04.324Z,15.73
2022-09-24T12:16:10.069Z,15.46
2022-09-24T12:17:17.493Z,15.69
2022-09-24T12:18:26.015Z,15.63
2022-09-24T12:19:34.747Z,15.73
2022-09-24T12:20:40.549Z,15.65
2022-09-24T12:21:47.085Z,15.92
2022-09-24T12:22:53.506Z,16.09
2022-09-24T12:24:02.727Z,16.17
2022-09-24T12:25:03.548Z,16.01
2022-09-24T12:26:07.369Z,15.77
2022-09-24T12:27:13.636Z,15.61
2022-09-24T12:28:38.833Z,15.71
2022-09-24T12:30:22.533Z,15.87
2022-09-24T12:31:49.179Z,15.68
2022-09-24T12:33:05.184Z,15.32
2022-09-24T12:34:12.426Z,15.48
2022-09-24T12:35:34.840Z,15.25
2022-09-24T12:36:39.046Z,15.04
2022-09-24T12:37:44.352Z,14.80
2022-09-24T12:38:50.795Z,14.21
2022-09-24T12:40:00.578Z,13.68
2022-09-24T12:41:13.462Z,13.25
2022-09-24T12:42:19.163Z,12.85
2022-09-24T12:43:25.380Z,12.80
2022-09-24T12:44:29.539Z,12.79
2022-09-24T12:45:33.751Z,12.85
2022-09-24T12:46:48.178Z,13.14
2022-09-24T12:48:00.546Z,13.24
2022-09-24T12:49:14.863Z,13.37
2022-09-24T12:50:23.349Z,13.54
2022-09-24T12:51:28.773Z,14.15
2022-09-24T12:52:42.957Z,14.19
2022-09-24T12:53:48.369Z,14.25
2022-09-24T12:54:56.624Z,13.91
2022-09-24T12:56:00.386Z,13.93
2022-09-24T12:57:25.719Z,14.33
2022-09-24T12:58:33.361Z,14.39
2022-09-24T12:59:38.743Z,14.70
2022-09-24T13:00:43.499Z,14.98
2022-09-24T13:01:45.966Z,14.84
2022-09-24T13:02:52.909Z,14.66
2022-09-24T13:04:17.333Z,14.65
2022-09-24T13:05:27.578Z,14.48
2022-09-24T13:06:34.858Z,14.36
2022-09-24T13:07:40.146Z,14.38
2022-09-24T13:08:44.280Z,14.38
2022-09-24T13:09:49.361Z,14.62
2022-09-24T13:10:57.659Z,14.65
2022-09-24T13:12:01.686Z,14.48
2022-09-24T13:13:17.830Z,14.70
2022-09-24T13:14:22.588Z,14.53
2022-09-24T13:15:36.829Z,14.11
2022-09-24T13:16:41.924Z,14.19
2022-09-24T13:17:45.534Z,14.21
2022-09-24T13:18:53.243Z,14.29
2022-09-24T13:19:58.074Z,14.08
2022-09-24T13:21:03.145Z,14.12
2022-09-24T13:22:06.880Z,14.04
2022-09-24T13:23:15.328Z,14.25
2022-09-24T13:24:20.554Z,14.35
2022-09-24T13:25:28.137Z,14.37
2022-09-24T13:26:37.177Z,14.41
2022-09-24T13:27:42.458Z,14.34
2022-09-24T13:28:48.698Z,14.36
2022-09-24T13:29:56.048Z,14.23
2022-09-24T13:31:16.233Z,14.11
2022-09-24T13:32:21.516Z,14.19
2022-09-24T13:33:30.273Z,14.10
2022-09-24T13:34:34.927Z,13.96
2022-09-24T13:35:43.967Z,13.80
2022-09-24T13:38:16.549Z,13.96
2022-09-24T13:39:28.020Z,13.97
2022-09-24T13:40:33.569Z,13.88
2022-09-24T13:41:48.180Z,14.02
2022-09-24T13:42:52.417Z,14.12
2022-09-24T13:43:58.771Z,14.22
2022-09-24T13:45:10.047Z,14.15
2022-09-24T13:46:18.328Z,13.97
2022-09-24T13:47:34.116Z,13.95
2022-09-24T13:48:40.548Z,14.03
2022-09-24T13:49:45.784Z,13.95
2022-09-24T13:50:51.002Z,13.96
2022-09-24T13:51:57.842Z,14.08
2022-09-24T13:53:04.018Z,14.17
2022-09-24T13:54:08.517Z,14.34
2022-09-24T13:55:19.852Z,14.54
2022-09-24T13:56:23.978Z,14.60
2022-09-24T13:57:29.053Z,14.59
2022-09-24T13:58:37.469Z,14.55
2022-09-24T13:59:40.975Z,14.50
2022-09-24T14:00:44.028Z,14.49
2022-09-24T14:01:48.441Z,14.47
2022-09-24T14:03:02.827Z,14.15
2022-09-24T14:04:19.224Z,14.18
2022-09-24T14:05:23.310Z,13.94
2022-09-24T14:06:33.226Z,13.95
2022-09-24T14:07:37.267Z,14.25
2022-09-24T14:08:44.948Z,14.48
2022-09-24T14:09:48.864Z,14.47
2022-09-24T14:10:52.377Z,14.45
2022-09-24T14:12:02.157Z,14.43
2022-09-24T14:13:21.774Z,14.41
2022-09-24T14:14:28.686Z,14.34
2022-09-24T14:15:32.179Z,14.16
2022-09-24T14:16:36.531Z,13.93
2022-09-24T14:17:40.037Z,13.99
2022-09-24T14:18:42.644Z,13.89
2022-09-24T14:19:49.111Z,14.08
2022-09-24T14:21:01.931Z,14.13
2022-09-24T14:22:08.258Z,13.97
2022-09-24T14:23:13.646Z,14.28
2022-09-24T14:24:23.350Z,14.38
2022-09-24T14:25:27.653Z,14.27
2022-09-24T14:26:40.437Z,14.10
2022-09-24T14:27:45.313Z,14.23
2022-09-24T14:28:49.241Z,14.27
2022-09-24T14:30:02.778Z,14.34